LEVS

Details ICAO LEVS
Name Cuatro Vientos
Region Spain
Timezone Europe/Madrid (UTC+2.0)
Plans Departing 49
Arriving 20
Stats Elevation 2,267 ft / 691 m (AMSL)
Location 40.371330° -3.784644°
Runways 2
Magnetic Variation 0.694° W
Sunrise 2018-05-26 04:51:58 UTC / 2018-05-26 06:51:58 Local
Sunset 2018-05-26 19:35:16 UTC / 2018-05-26 21:35:16 Local
Advertisement - Login to hide

Runways

ID Width Length Bearing (true) Bearing (mag) Surface Threshold Offset Overrun Length
10 98 ft / 30 m 4,897 ft / 1,493 m 93.79° 94.48° Asphalt 0 ft / 0 m 197 ft / 60 m
10L 148 ft / 45 m 3,656 ft / 1,114 m 94.12° 94.81° Dirt 0 ft / 0 m 0 ft / 0 m
28 98 ft / 30 m 4,897 ft / 1,493 m 273.80° 274.49° Asphalt 0 ft / 0 m 197 ft / 60 m
28R 148 ft / 45 m 3,656 ft / 1,114 m 274.13° 274.82° Dirt 0 ft / 0 m 0 ft / 0 m

Map

Weather


0- 5 10 15 20 25 30 35+ Temperature / ° C

Clouds and Precipitation
Forecast for 2018-05-26 00:00 UTC. Updated 6 hours ago

Ground ~20,000 ft ~40,000 ft Winds

METAR

LEVS 260500Z 00000KT 9999 FEW008 12/11 Q1014

TAF

Not found

Frequencies

Ground 121.80 MHz GND
Tower 118.70 MHz TWR
Tower 122.50 MHz TWR
Warning: Do not use this data for real-world aviation or navigation. No guarantee of current accuracy is given.